createdAt,value
2023-03-17T00:00:47.607Z,4.32
2023-03-17T00:03:23.378Z,4.63
2023-03-17T00:05:53.333Z,4.63
2023-03-17T00:08:25.046Z,4.65
2023-03-17T00:10:55.119Z,4.70
2023-03-17T00:13:24.140Z,4.30
2023-03-17T00:15:57.593Z,5.10
2023-03-17T00:18:26.130Z,4.43
2023-03-17T00:20:54.510Z,5.57
2023-03-17T00:23:25.403Z,5.30
2023-03-17T00:25:57.175Z,5.25
2023-03-17T00:28:27.798Z,5.20
2023-03-17T00:30:59.673Z,6.13
2023-03-17T00:33:30.876Z,5.78
2023-03-17T00:36:00.284Z,6.30
2023-03-17T00:38:29.649Z,5.97
2023-03-17T00:41:00.931Z,6.65
2023-03-17T00:43:30.745Z,7.40
2023-03-17T00:45:59.291Z,7.28
2023-03-17T00:48:29.810Z,7.13
2023-03-17T00:50:58.328Z,7.28
2023-03-17T00:53:30.128Z,7.93
2023-03-17T00:56:02.180Z,8.00
2023-03-17T00:58:34.212Z,7.38
2023-03-17T01:01:02.896Z,5.95
2023-03-17T01:03:32.972Z,6.50
2023-03-17T01:06:02.747Z,6.35
2023-03-17T01:08:31.771Z,7.25
2023-03-17T01:11:02.074Z,7.40
2023-03-17T01:13:30.407Z,6.68
2023-03-17T01:15:58.687Z,6.80
2023-03-17T01:18:27.332Z,5.72
2023-03-17T01:20:55.905Z,6.57
2023-03-17T01:23:24.400Z,6.38
2023-03-17T01:25:54.687Z,6.57
2023-03-17T01:28:24.479Z,6.90
2023-03-17T01:30:52.674Z,6.70
2023-03-17T01:33:21.169Z,6.40
2023-03-17T01:35:49.503Z,6.55
2023-03-17T01:38:18.174Z,7.25
2023-03-17T01:40:49.559Z,6.68
2023-03-17T01:43:24.239Z,6.85
2023-03-17T01:46:29.611Z,5.80
2023-03-17T01:49:09.401Z,6.63
2023-03-17T01:51:46.343Z,6.85
2023-03-17T01:54:19.673Z,5.95
2023-03-17T01:56:51.713Z,6.82
2023-03-17T01:59:28.545Z,6.55
2023-03-17T02:02:03.556Z,6.53
2023-03-17T02:04:32.876Z,6.10
2023-03-17T02:07:03.711Z,5.88
2023-03-17T02:09:34.024Z,5.43
2023-03-17T02:12:05.250Z,5.70
2023-03-17T02:14:36.366Z,5.22
2023-03-17T02:17:04.744Z,5.85
2023-03-17T02:19:34.132Z,6.13
2023-03-17T02:22:03.945Z,6.18
2023-03-17T02:24:37.128Z,5.65
2023-03-17T02:27:13.416Z,6.00
2023-03-17T02:29:42.326Z,5.80
2023-03-17T02:32:11.064Z,5.43
2023-03-17T02:34:39.731Z,5.65
2023-03-17T02:37:09.669Z,5.65
2023-03-17T02:39:38.498Z,5.95
2023-03-17T02:42:07.818Z,4.80
2023-03-17T02:44:36.476Z,5.30
2023-03-17T02:47:06.469Z,4.38
2023-03-17T02:49:35.759Z,4.90
2023-03-17T02:52:04.791Z,4.63
2023-03-17T02:54:34.747Z,4.75
2023-03-17T02:57:03.326Z,3.97
2023-03-17T02:59:31.886Z,4.25
2023-03-17T03:02:00.979Z,5.35
2023-03-17T03:04:29.664Z,4.55
2023-03-17T03:06:58.223Z,3.63
2023-03-17T03:09:27.314Z,4.13
2023-03-17T03:11:57.301Z,3.35
2023-03-17T03:14:26.083Z,4.53
2023-03-17T03:16:54.823Z,4.60
2023-03-17T03:19:24.219Z,5.15
2023-03-17T03:21:52.787Z,4.88
2023-03-17T03:24:21.387Z,5.28
2023-03-17T03:26:49.880Z,5.78
2023-03-17T03:29:19.590Z,4.97
2023-03-17T03:31:48.619Z,5.22
2023-03-17T03:34:17.310Z,3.92
2023-03-17T03:36:45.881Z,4.15
2023-03-17T03:39:14.663Z,6.60
2023-03-17T03:41:43.239Z,6.43
2023-03-17T03:44:11.572Z,5.50
2023-03-17T03:46:41.206Z,6.68
2023-03-17T03:49:09.721Z,5.78
2023-03-17T03:51:37.937Z,5.45
2023-03-17T03:54:06.465Z,5.40
2023-03-17T03:56:35.201Z,6.45
2023-03-17T03:59:03.833Z,7.38
2023-03-17T04:01:32.018Z,7.07
2023-03-17T04:04:01.784Z,6.55
2023-03-17T04:06:30.307Z,6.22
2023-03-17T04:08:58.848Z,6.07
2023-03-17T04:11:27.496Z,5.60
2023-03-17T04:13:56.044Z,6.28
2023-03-17T04:16:24.628Z,5.82
2023-03-17T04:18:53.308Z,4.88
2023-03-17T04:21:22.881Z,6.07
2023-03-17T04:23:51.575Z,5.28
2023-03-17T04:26:19.860Z,6.15
2023-03-17T04:28:48.376Z,7.68
2023-03-17T04:31:17.279Z,8.70
2023-03-17T04:33:45.754Z,6.35
2023-03-17T04:36:20.421Z,6.13
2023-03-17T04:38:50.408Z,4.95
2023-03-17T04:41:18.636Z,5.05
2023-03-17T04:43:47.405Z,5.35
2023-03-17T04:46:16.428Z,5.88
2023-03-17T04:48:45.055Z,5.25
2023-03-17T04:51:13.578Z,5.43
2023-03-17T04:53:42.851Z,5.32
2023-03-17T04:56:13.038Z,5.57
2023-03-17T04:58:41.492Z,5.85
2023-03-17T05:01:10.263Z,5.68
2023-03-17T05:03:38.839Z,5.15
2023-03-17T05:06:08.505Z,5.07
2023-03-17T05:08:37.021Z,6.15
2023-03-17T05:11:06.195Z,6.20
2023-03-17T05:13:35.843Z,5.68
2023-03-17T05:16:04.244Z,5.40
2023-03-17T05:18:32.777Z,5.60
2023-03-17T05:21:01.539Z,5.80
2023-03-17T05:23:30.466Z,5.68
2023-03-17T05:25:59.331Z,5.72
2023-03-17T05:28:27.975Z,6.05
2023-03-17T05:30:57.707Z,6.00
2023-03-17T05:33:27.585Z,6.35
2023-03-17T05:35:56.272Z,5.93
2023-03-17T05:38:25.096Z,6.40
2023-03-17T05:40:53.658Z,4.90
2023-03-17T05:43:22.974Z,4.80
2023-03-17T05:45:51.505Z,4.88
2023-03-17T05:48:21.187Z,6.95
2023-03-17T05:50:49.594Z,5.45
2023-03-17T05:53:18.619Z,5.60
2023-03-17T05:55:47.763Z,5.63
2023-03-17T05:58:17.009Z,5.40
2023-03-17T06:00:46.115Z,5.38
2023-03-17T06:03:15.194Z,5.45
2023-03-17T06:05:45.810Z,6.05
2023-03-17T06:08:14.886Z,6.03
2023-03-17T06:10:44.570Z,5.88
2023-03-17T06:13:13.201Z,7.10
2023-03-17T06:15:42.983Z,6.10
2023-03-17T06:18:11.664Z,5.40
2023-03-17T06:20:40.236Z,4.65
2023-03-17T06:23:09.861Z,5.13
2023-03-17T06:25:38.140Z,4.45
2023-03-17T06:28:07.104Z,4.03
2023-03-17T06:30:38.696Z,3.45
2023-03-17T06:33:08.870Z,3.63
2023-03-17T06:35:38.245Z,4.05
2023-03-17T06:38:06.852Z,4.68
2023-03-17T06:40:36.940Z,4.50
2023-03-17T06:43:05.810Z,5.35
2023-03-17T06:45:34.364Z,4.78
2023-03-17T06:48:02.919Z,7.15
2023-03-17T06:50:31.502Z,9.85
2023-03-17T06:53:00.100Z,9.68
2023-03-17T06:55:29.158Z,7.45
2023-03-17T06:58:00.378Z,5.45
2023-03-17T07:00:30.261Z,6.15
2023-03-17T07:02:58.786Z,5.93
2023-03-17T07:05:27.915Z,5.75
2023-03-17T07:07:56.488Z,5.28
2023-03-17T07:10:25.472Z,5.93
2023-03-17T07:12:54.045Z,6.70
2023-03-17T07:15:24.055Z,5.32
2023-03-17T07:17:52.659Z,5.50
2023-03-17T07:20:21.579Z,5.75
2023-03-17T07:22:50.134Z,5.00
2023-03-17T07:25:18.540Z,6.68
2023-03-17T07:27:47.236Z,7.05
2023-03-17T07:30:18.950Z,6.10
2023-03-17T07:32:49.199Z,6.55
2023-03-17T07:35:19.176Z,5.03
2023-03-17T07:37:48.147Z,4.88
2023-03-17T07:40:18.366Z,4.75
2023-03-17T07:42:46.885Z,4.03
2023-03-17T07:45:15.463Z,3.83
2023-03-17T07:47:44.072Z,3.95
2023-03-17T07:50:14.039Z,4.63
2023-03-17T07:52:42.556Z,4.47
2023-03-17T07:55:12.438Z,4.22
2023-03-17T07:57:41.342Z,4.30
2023-03-17T08:00:13.449Z,3.92
2023-03-17T08:02:42.003Z,4.57
2023-03-17T08:05:11.537Z,4.55
2023-03-17T08:07:41.488Z,3.50
2023-03-17T08:10:12.879Z,3.97
2023-03-17T08:12:42.639Z,3.88
2023-03-17T08:15:12.996Z,4.10
2023-03-17T08:17:41.246Z,4.47
2023-03-17T08:20:11.641Z,4.07
2023-03-17T08:22:41.640Z,4.88
2023-03-17T08:25:11.494Z,4.00
2023-03-17T08:27:40.554Z,4.63
2023-03-17T08:30:11.138Z,4.10
2023-03-17T08:32:39.730Z,3.95
2023-03-17T08:35:08.825Z,4.28
2023-03-17T08:37:37.936Z,4.18
2023-03-17T08:40:09.992Z,4.25
2023-03-17T08:42:38.685Z,4.57
2023-03-17T08:45:09.942Z,4.00
2023-03-17T08:47:39.200Z,3.65
2023-03-17T08:50:13.405Z,3.47
2023-03-17T08:52:41.724Z,3.92
2023-03-17T08:55:13.118Z,3.88
2023-03-17T08:57:42.506Z,4.10
2023-03-17T09:00:13.846Z,3.70
2023-03-17T09:02:45.029Z,4.80
2023-03-17T09:05:15.686Z,3.97
2023-03-17T09:07:44.656Z,4.25
2023-03-17T09:10:16.768Z,3.97
2023-03-17T09:12:45.625Z,4.20
2023-03-17T09:15:14.162Z,3.92
2023-03-17T09:17:43.802Z,4.40
2023-03-17T09:20:13.800Z,4.65
2023-03-17T09:22:42.387Z,4.70
2023-03-17T09:25:11.223Z,4.97
2023-03-17T09:27:40.804Z,4.53
2023-03-17T09:30:11.087Z,4.65
2023-03-17T09:32:40.192Z,4.75
2023-03-17T09:35:09.724Z,5.03
2023-03-17T09:37:38.271Z,5.60
2023-03-17T09:40:09.238Z,3.78
2023-03-17T09:42:54.306Z,4.75
2023-03-17T09:45:33.548Z,4.97
2023-03-17T09:48:46.872Z,3.78
2023-03-17T09:51:19.573Z,4.50
2023-03-17T09:53:55.507Z,3.33
2023-03-17T09:56:25.556Z,3.75
2023-03-17T09:58:59.588Z,3.88
2023-03-17T10:01:27.980Z,4.22
2023-03-17T10:03:56.718Z,3.72
2023-03-17T10:06:42.643Z,3.78
2023-03-17T10:09:26.723Z,3.78
2023-03-17T10:12:07.418Z,4.00
2023-03-17T10:14:50.740Z,3.78
2023-03-17T10:17:22.994Z,5.05
2023-03-17T10:19:59.087Z,4.13
2023-03-17T10:22:33.533Z,4.72
2023-03-17T10:25:09.176Z,4.13
2023-03-17T10:27:39.483Z,4.25
2023-03-17T10:30:17.709Z,4.65
2023-03-17T10:32:46.735Z,3.97
2023-03-17T10:35:17.587Z,3.30
2023-03-17T10:37:48.212Z,3.35
2023-03-17T10:40:26.254Z,3.63
2023-03-17T10:43:01.711Z,4.43
2023-03-17T10:45:34.449Z,4.15
2023-03-17T10:48:04.372Z,4.05
2023-03-17T10:50:35.220Z,4.00
2023-03-17T10:53:08.648Z,3.65
2023-03-17T10:55:45.020Z,3.53
2023-03-17T10:58:18.025Z,2.72
2023-03-17T11:00:57.736Z,4.57
2023-03-17T11:03:29.862Z,3.95
2023-03-17T11:06:04.521Z,4.30
2023-03-17T11:08:35.474Z,3.92
2023-03-17T11:11:08.561Z,4.22
2023-03-17T11:13:37.386Z,3.65
2023-03-17T11:16:22.009Z,3.47
2023-03-17T11:18:55.764Z,3.47
2023-03-17T11:21:31.056Z,4.00
2023-03-17T11:24:08.396Z,3.47
2023-03-17T11:27:00.849Z,3.10
2023-03-17T11:29:50.002Z,3.35
2023-03-17T11:32:29.451Z,3.30
2023-03-17T11:35:16.649Z,3.03
2023-03-17T11:38:09.259Z,4.32
2023-03-17T11:40:51.953Z,4.07
2023-03-17T11:43:31.498Z,3.60
2023-03-17T11:46:08.958Z,4.80
2023-03-17T11:48:50.965Z,4.38
2023-03-17T11:51:30.397Z,4.28
2023-03-17T11:54:09.535Z,4.32
2023-03-17T11:56:46.497Z,4.13
2023-03-17T11:59:26.965Z,4.68
2023-03-17T12:02:02.185Z,4.13
2023-03-17T12:04:37.840Z,4.15
2023-03-17T12:07:17.874Z,3.63
2023-03-17T12:09:51.811Z,4.57
2023-03-17T12:12:31.212Z,2.77
2023-03-17T12:15:03.457Z,3.70
2023-03-17T12:17:39.276Z,3.72
2023-03-17T12:20:18.351Z,3.72
2023-03-17T12:22:56.026Z,3.35
2023-03-17T12:25:31.023Z,4.25
2023-03-17T12:28:08.599Z,3.55
2023-03-17T12:30:49.260Z,3.35
2023-03-17T12:33:25.719Z,3.92
2023-03-17T12:35:55.597Z,5.28
2023-03-17T12:38:33.098Z,3.72
2023-03-17T12:41:23.644Z,4.72
2023-03-17T12:44:06.143Z,4.95
2023-03-17T12:47:00.419Z,4.25
2023-03-17T12:50:15.884Z,4.55
2023-03-17T12:53:26.578Z,4.67
2023-03-17T12:56:01.165Z,4.43
2023-03-17T12:58:38.489Z,4.78
2023-03-17T13:01:18.344Z,4.43
2023-03-17T13:04:02.033Z,4.63
2023-03-17T13:06:39.299Z,4.93
2023-03-17T13:09:48.594Z,3.88
2023-03-17T13:12:52.511Z,4.68
2023-03-17T13:15:48.678Z,4.55
2023-03-17T13:18:53.399Z,4.15
2023-03-17T13:21:26.376Z,4.03
2023-03-17T13:24:22.784Z,4.35
2023-03-17T13:27:01.582Z,4.05
2023-03-17T13:29:45.916Z,3.17
2023-03-17T13:32:39.196Z,4.40
2023-03-17T13:35:28.532Z,3.83
2023-03-17T13:38:32.581Z,6.22
2023-03-17T13:41:30.843Z,5.45
2023-03-17T13:44:26.288Z,4.10
2023-03-17T13:46:55.223Z,3.47
2023-03-17T13:49:29.971Z,2.85
2023-03-17T13:54:35.417Z,3.10
2023-03-17T13:57:28.061Z,3.50
2023-03-17T14:00:05.501Z,4.25
2023-03-17T14:02:39.170Z,3.50
2023-03-17T14:05:18.211Z,3.28
2023-03-17T14:07:51.936Z,3.33
2023-03-17T14:10:25.893Z,2.85
2023-03-17T14:13:01.858Z,2.73
2023-03-17T14:15:40.640Z,2.83
2023-03-17T14:18:16.723Z,3.08
2023-03-17T14:20:55.006Z,2.55
2023-03-17T14:23:24.919Z,2.72
2023-03-17T14:25:56.574Z,3.30
2023-03-17T14:28:28.712Z,2.80
2023-03-17T14:31:02.454Z,2.78
2023-03-17T14:33:33.902Z,2.92
2023-03-17T14:36:05.297Z,3.40
2023-03-17T14:38:37.094Z,3.53
2023-03-17T14:41:08.671Z,4.05
2023-03-17T14:43:37.724Z,3.33
2023-03-17T14:46:13.513Z,3.22
2023-03-17T14:48:44.702Z,3.67
2023-03-17T14:51:27.879Z,3.17
2023-03-17T14:54:01.276Z,2.83
2023-03-17T14:56:35.988Z,3.58
2023-03-17T15:01:39.846Z,3.15
2023-03-17T15:04:13.887Z,3.05
2023-03-17T15:06:50.608Z,2.95
2023-03-17T15:09:25.842Z,3.50
2023-03-17T15:11:57.416Z,3.53
2023-03-17T15:14:32.744Z,3.88
2023-03-17T15:17:05.247Z,3.00
2023-03-17T15:19:41.394Z,3.05
2023-03-17T15:22:25.729Z,4.13
2023-03-17T15:25:01.430Z,3.67
2023-03-17T15:27:31.080Z,3.40
2023-03-17T15:29:59.571Z,2.75
2023-03-17T15:32:30.011Z,3.22
2023-03-17T15:34:58.835Z,3.05
2023-03-17T15:37:29.502Z,3.05
2023-03-17T15:39:57.971Z,3.05
2023-03-17T15:42:30.045Z,2.92
2023-03-17T15:45:00.199Z,3.35
2023-03-17T15:47:32.004Z,2.85
2023-03-17T15:50:04.362Z,3.65
2023-03-17T15:52:33.351Z,3.97
2023-03-17T15:55:01.847Z,2.92
2023-03-17T15:57:30.488Z,3.15
2023-03-17T16:00:02.870Z,3.22
2023-03-17T16:02:42.817Z,2.97
2023-03-17T16:05:19.959Z,3.35
2023-03-17T16:07:48.982Z,3.80
2023-03-17T16:10:20.601Z,3.63
2023-03-17T16:12:49.522Z,6.10
2023-03-17T16:15:23.143Z,5.55
2023-03-17T16:17:56.677Z,5.28
2023-03-17T16:20:27.289Z,3.85
2023-03-17T16:22:58.529Z,4.00
2023-03-17T16:25:30.104Z,4.82
2023-03-17T16:28:00.880Z,3.80
2023-03-17T16:30:32.205Z,4.60
2023-03-17T16:33:13.475Z,4.35
2023-03-17T16:35:42.414Z,4.78
2023-03-17T16:38:13.484Z,4.35
2023-03-17T16:40:42.953Z,4.05
2023-03-17T16:43:25.609Z,4.60
2023-03-17T16:45:57.092Z,5.05
2023-03-17T16:48:27.630Z,4.38
2023-03-17T16:50:56.257Z,4.78
2023-03-17T16:53:25.160Z,4.50
2023-03-17T16:55:54.689Z,4.25
2023-03-17T16:58:25.557Z,4.47
2023-03-17T17:00:58.287Z,4.45
2023-03-17T17:03:28.199Z,4.50
2023-03-17T17:05:56.737Z,5.97
2023-03-17T17:08:25.509Z,4.88
2023-03-17T17:10:53.765Z,5.07
2023-03-17T17:13:22.107Z,5.40
2023-03-17T17:15:50.894Z,5.55
2023-03-17T17:18:23.435Z,7.80
2023-03-17T17:20:55.398Z,6.65
2023-03-17T17:23:26.538Z,5.60
2023-03-17T17:25:56.027Z,5.03
2023-03-17T17:28:25.982Z,6.00
2023-03-17T17:30:54.676Z,5.53
2023-03-17T17:33:24.298Z,6.75
2023-03-17T17:35:54.326Z,6.32
2023-03-17T17:38:26.373Z,6.43
2023-03-17T17:40:55.827Z,6.32
2023-03-17T17:43:25.106Z,5.35
2023-03-17T17:45:54.276Z,5.25
2023-03-17T17:48:26.439Z,6.47
2023-03-17T17:50:58.499Z,5.30
2023-03-17T17:53:26.871Z,6.28
2023-03-17T17:55:55.419Z,5.22
2023-03-17T17:58:26.501Z,4.82
2023-03-17T18:00:56.999Z,4.35
2023-03-17T18:03:26.467Z,4.57
2023-03-17T18:05:58.133Z,4.97
2023-03-17T18:08:27.268Z,5.13
2023-03-17T18:10:57.193Z,5.45
2023-03-17T18:13:25.858Z,5.05
2023-03-17T18:15:54.177Z,4.97
2023-03-17T18:18:22.738Z,5.47
2023-03-17T18:20:53.796Z,4.82
2023-03-17T18:23:23.435Z,5.50
2023-03-17T18:25:51.978Z,8.70
2023-03-17T18:28:20.718Z,7.93
2023-03-17T18:30:49.657Z,7.07
2023-03-17T18:33:20.468Z,9.15
2023-03-17T18:35:52.173Z,6.78
2023-03-17T18:38:20.616Z,4.95
2023-03-17T18:40:50.338Z,5.22
2023-03-17T18:43:19.055Z,7.35
2023-03-17T18:45:47.535Z,7.65
2023-03-17T18:48:16.180Z,7.70
2023-03-17T18:50:44.760Z,6.38
2023-03-17T18:53:13.395Z,6.05
2023-03-17T18:55:42.253Z,5.88
2023-03-17T18:58:12.769Z,6.15
2023-03-17T19:00:41.297Z,6.18
2023-03-17T19:03:09.550Z,8.35
2023-03-17T19:05:39.409Z,7.15
2023-03-17T19:08:08.082Z,5.55
2023-03-17T19:10:36.907Z,6.18
2023-03-17T19:13:06.122Z,5.82
2023-03-17T19:15:35.702Z,5.97
2023-03-17T19:18:04.412Z,5.70
2023-03-17T19:20:34.401Z,5.65
2023-03-17T19:23:04.353Z,5.75
2023-03-17T19:25:32.904Z,6.13
2023-03-17T19:28:03.178Z,6.68
2023-03-17T19:30:32.185Z,7.10
2023-03-17T19:33:01.959Z,6.97
2023-03-17T19:35:30.537Z,6.85
2023-03-17T19:37:58.801Z,7.28
2023-03-17T19:40:27.542Z,6.30
2023-03-17T19:42:56.103Z,7.00
2023-03-17T19:45:26.069Z,6.47
2023-03-17T19:47:54.994Z,7.60
2023-03-17T19:50:25.419Z,7.13
2023-03-17T19:52:54.104Z,7.30
2023-03-17T19:55:24.559Z,6.93
2023-03-17T19:57:53.773Z,9.15
2023-03-17T20:00:22.800Z,7.68
2023-03-17T20:02:51.944Z,7.25
2023-03-17T20:05:20.631Z,8.32
2023-03-17T20:07:50.192Z,6.68
2023-03-17T20:10:19.065Z,4.97
2023-03-17T20:12:47.562Z,5.10
2023-03-17T20:15:16.433Z,5.60
2023-03-17T20:17:45.077Z,6.20
2023-03-17T20:20:14.528Z,4.63
2023-03-17T20:22:43.862Z,6.85
2023-03-17T20:25:13.802Z,4.43
2023-03-17T20:27:42.441Z,3.70
2023-03-17T20:30:13.085Z,3.83
2023-03-17T20:32:41.623Z,4.28
2023-03-17T20:35:10.827Z,3.78
2023-03-17T20:37:39.892Z,3.95
2023-03-17T20:40:10.623Z,3.90
2023-03-17T20:42:40.216Z,3.60
2023-03-17T20:45:09.307Z,3.70
2023-03-17T20:47:37.969Z,3.78
2023-03-17T20:50:08.628Z,2.70
2023-03-17T20:52:38.321Z,3.78
2023-03-17T20:55:08.411Z,3.83
2023-03-17T20:57:37.950Z,3.88
2023-03-17T21:00:12.861Z,3.22
2023-03-17T21:05:14.245Z,2.85
2023-03-17T21:07:43.343Z,2.70
2023-03-17T21:10:12.915Z,3.03
2023-03-17T21:12:41.558Z,3.25
2023-03-17T21:15:12.807Z,2.75
2023-03-17T21:17:42.103Z,2.88
2023-03-17T21:20:13.217Z,3.28
2023-03-17T21:22:41.914Z,3.25
2023-03-17T21:25:11.699Z,2.90
2023-03-17T21:27:41.617Z,3.60
2023-03-17T21:30:14.745Z,3.90
2023-03-17T21:32:43.340Z,5.68
2023-03-17T21:35:14.920Z,4.72
2023-03-17T21:37:43.475Z,4.53
2023-03-17T21:40:15.564Z,4.18
2023-03-17T21:42:44.186Z,4.03
2023-03-17T21:45:13.965Z,3.88
2023-03-17T21:47:42.757Z,3.75
2023-03-17T21:50:12.281Z,4.45
2023-03-17T21:52:40.995Z,4.53
2023-03-17T21:55:13.574Z,5.40
2023-03-17T21:57:42.148Z,4.45
2023-03-17T22:00:14.382Z,5.10
2023-03-17T22:02:42.903Z,4.82
2023-03-17T22:05:12.151Z,5.57
2023-03-17T22:07:41.062Z,5.88
2023-03-17T22:10:11.289Z,5.05
2023-03-17T22:12:40.283Z,5.20
2023-03-17T22:15:10.218Z,4.78
2023-03-17T22:17:40.208Z,5.00
2023-03-17T22:20:10.525Z,4.40
2023-03-17T22:22:39.186Z,4.68
2023-03-17T22:25:08.847Z,4.50
2023-03-17T22:27:37.500Z,4.95
2023-03-17T22:30:06.578Z,4.72
2023-03-17T22:32:34.932Z,5.05
2023-03-17T22:35:05.343Z,5.15
2023-03-17T22:37:33.878Z,4.65
2023-03-17T22:40:05.845Z,4.75
2023-03-17T22:42:34.628Z,5.22
2023-03-17T22:45:04.393Z,5.25
2023-03-17T22:47:32.945Z,5.13
2023-03-17T22:50:01.457Z,5.25
2023-03-17T22:52:31.443Z,5.22
2023-03-17T22:55:00.044Z,5.93
2023-03-17T22:57:28.824Z,5.80
2023-03-17T22:59:58.323Z,5.72
2023-03-17T23:02:27.100Z,5.03
2023-03-17T23:04:55.647Z,4.97
2023-03-17T23:07:24.156Z,6.43
2023-03-17T23:09:53.848Z,7.03
2023-03-17T23:12:24.466Z,5.93
2023-03-17T23:14:53.102Z,7.10
2023-03-17T23:17:21.882Z,8.98
2023-03-17T23:19:50.481Z,8.80
2023-03-17T23:22:19.056Z,7.78
2023-03-17T23:24:47.690Z,6.88
2023-03-17T23:27:17.561Z,7.20
2023-03-17T23:29:46.447Z,6.30
2023-03-17T23:32:15.442Z,5.35
2023-03-17T23:34:43.978Z,5.30
2023-03-17T23:37:12.639Z,5.38
2023-03-17T23:39:41.596Z,5.10
2023-03-17T23:42:11.165Z,5.28
2023-03-17T23:44:41.764Z,5.95
2023-03-17T23:47:10.655Z,5.55
2023-03-17T23:49:39.451Z,4.55
2023-03-17T23:52:08.915Z,5.55
2023-03-17T23:54:38.660Z,6.05
2023-03-17T23:57:07.690Z,5.90
2023-03-17T23:59:37.018Z,5.00
